createdAt,value
2019-06-13T00:00:19.053Z,0.00
2019-06-13T00:01:16.057Z,0.00
2019-06-13T00:02:16.019Z,0.00
2019-06-13T00:03:18.702Z,0.00
2019-06-13T00:04:16.024Z,0.00
2019-06-13T00:05:16.009Z,0.00
2019-06-13T00:06:15.999Z,0.00
2019-06-13T00:07:15.983Z,0.00
2019-06-13T00:08:15.975Z,0.00
2019-06-13T00:09:15.976Z,0.00
2019-06-13T00:10:18.553Z,0.00
2019-06-13T00:11:15.949Z,0.00
2019-06-13T00:12:15.953Z,0.00
2019-06-13T00:13:15.950Z,0.00
2019-06-13T00:14:18.547Z,0.00
2019-06-13T00:15:15.925Z,0.00
2019-06-13T00:16:15.905Z,0.00
2019-06-13T00:17:15.895Z,0.00
2019-06-13T00:18:15.881Z,0.00
2019-06-13T00:19:15.890Z,0.00
2019-06-13T00:20:15.875Z,0.00
2019-06-13T00:21:15.882Z,0.00
2019-06-13T00:22:17.706Z,0.00
2019-06-13T00:23:15.825Z,0.00
2019-06-13T00:24:15.808Z,0.00
2019-06-13T00:25:15.816Z,0.00
2019-06-13T00:26:15.811Z,0.00
2019-06-13T00:27:15.803Z,0.00
2019-06-13T00:28:15.830Z,0.00
2019-06-13T00:29:15.774Z,0.00
2019-06-13T00:30:15.777Z,0.00
2019-06-13T00:31:15.750Z,0.00
2019-06-13T00:32:15.754Z,0.00
2019-06-13T00:33:15.741Z,0.00
2019-06-13T00:34:15.744Z,0.00
2019-06-13T00:35:15.739Z,0.00
2019-06-13T00:36:15.700Z,0.00
2019-06-13T00:37:15.691Z,0.00
2019-06-13T00:38:15.685Z,0.00
2019-06-13T00:39:15.691Z,0.00
2019-06-13T00:40:15.661Z,0.00
2019-06-13T00:41:15.661Z,0.00
2019-06-13T00:42:15.640Z,0.00
2019-06-13T00:43:15.639Z,0.00
2019-06-13T00:44:15.641Z,0.00
2019-06-13T00:45:15.620Z,0.00
2019-06-13T00:46:15.613Z,0.00
2019-06-13T00:47:15.586Z,0.00
2019-06-13T00:48:15.598Z,0.00
2019-06-13T00:49:15.593Z,0.00
2019-06-13T00:50:15.575Z,0.00
2019-06-13T00:51:15.566Z,0.00
2019-06-13T00:52:15.565Z,0.00
2019-06-13T00:53:15.558Z,0.00
2019-06-13T00:54:15.537Z,0.00
2019-06-13T00:55:15.547Z,0.00
2019-06-13T00:56:15.509Z,0.00
2019-06-13T00:57:15.519Z,0.00
2019-06-13T00:58:15.482Z,0.00
2019-06-13T00:59:15.492Z,0.00
2019-06-13T01:00:15.471Z,0.00
2019-06-13T01:01:15.470Z,0.00
2019-06-13T01:02:15.456Z,0.00
2019-06-13T01:03:15.436Z,0.00
2019-06-13T01:04:15.430Z,0.00
2019-06-13T01:05:15.407Z,0.00
2019-06-13T01:06:22.237Z,0.00
2019-06-13T01:07:15.406Z,0.00
2019-06-13T01:08:15.382Z,0.00
2019-06-13T01:09:15.418Z,0.00
2019-06-13T01:10:15.463Z,0.00
2019-06-13T01:11:15.341Z,0.00
2019-06-13T01:12:15.341Z,0.00
2019-06-13T01:13:15.357Z,0.00
2019-06-13T01:14:15.318Z,0.00
2019-06-13T01:15:15.334Z,0.00
2019-06-13T01:16:15.323Z,0.00
2019-06-13T01:17:15.311Z,0.00
2019-06-13T01:18:15.291Z,0.00
2019-06-13T01:19:15.298Z,0.00
2019-06-13T01:20:15.310Z,0.00
2019-06-13T01:21:15.260Z,0.00
2019-06-13T01:22:15.249Z,0.00
2019-06-13T01:23:15.241Z,0.00
2019-06-13T01:24:15.256Z,0.00
2019-06-13T01:25:15.225Z,0.00
2019-06-13T01:26:15.228Z,0.00
2019-06-13T01:27:15.198Z,0.00
2019-06-13T01:28:15.195Z,0.00
2019-06-13T01:29:15.200Z,0.00
2019-06-13T01:30:15.175Z,0.00
2019-06-13T01:31:15.187Z,0.00
2019-06-13T01:32:15.174Z,0.00
2019-06-13T01:33:15.164Z,0.00
2019-06-13T01:34:15.148Z,0.00
2019-06-13T01:35:15.144Z,0.00
2019-06-13T01:36:15.104Z,0.00
2019-06-13T01:37:15.097Z,0.00
2019-06-13T01:38:15.099Z,0.00
2019-06-13T01:39:15.123Z,0.00
2019-06-13T01:40:15.096Z,0.00
2019-06-13T01:41:15.053Z,0.00
2019-06-13T01:42:15.051Z,0.00
2019-06-13T01:43:15.072Z,0.00
2019-06-13T01:44:15.044Z,0.00
2019-06-13T01:45:15.073Z,0.00
2019-06-13T01:46:15.032Z,0.00
2019-06-13T01:47:15.001Z,0.00
2019-06-13T01:48:23.050Z,0.00
2019-06-13T01:49:14.989Z,0.00
2019-06-13T01:50:14.972Z,0.00
2019-06-13T01:51:14.956Z,0.00
2019-06-13T01:52:14.950Z,0.00
2019-06-13T01:53:14.948Z,0.00
2019-06-13T01:54:14.932Z,0.00
2019-06-13T01:55:14.937Z,0.00
2019-06-13T01:56:14.911Z,0.00
2019-06-13T01:57:14.922Z,0.00
2019-06-13T01:58:14.899Z,0.00
2019-06-13T01:59:14.898Z,0.00
2019-06-13T02:00:28.871Z,0.00
2019-06-13T02:01:14.871Z,0.00
2019-06-13T02:02:14.856Z,0.00
2019-06-13T02:03:14.855Z,0.00
2019-06-13T02:04:14.842Z,0.00
2019-06-13T02:05:14.833Z,0.00
2019-06-13T02:06:14.816Z,0.00
2019-06-13T02:07:14.812Z,0.00
2019-06-13T02:08:14.793Z,0.00
2019-06-13T02:09:14.798Z,0.00
2019-06-13T02:10:14.764Z,0.00
2019-06-13T02:11:14.783Z,0.00
2019-06-13T02:12:14.768Z,0.00
2019-06-13T02:13:14.748Z,0.00
2019-06-13T02:14:14.768Z,0.00
2019-06-13T02:15:14.736Z,0.00
2019-06-13T02:16:14.716Z,0.00
2019-06-13T02:17:14.723Z,0.00
2019-06-13T02:18:14.709Z,0.00
2019-06-13T02:19:14.676Z,0.00
2019-06-13T02:20:14.671Z,0.00
2019-06-13T02:21:14.673Z,0.00
2019-06-13T02:22:14.662Z,0.00
2019-06-13T02:23:14.666Z,0.00
2019-06-13T02:24:14.629Z,0.00
2019-06-13T02:25:14.630Z,0.00
2019-06-13T02:26:14.628Z,0.00
2019-06-13T02:27:14.629Z,0.00
2019-06-13T02:28:14.595Z,0.00
2019-06-13T02:29:14.579Z,0.00
2019-06-13T02:30:14.564Z,0.00
2019-06-13T02:31:14.564Z,0.00
2019-06-13T02:32:21.034Z,0.00
2019-06-13T02:33:14.539Z,0.00
2019-06-13T02:34:14.542Z,0.00
2019-06-13T02:35:14.539Z,0.00
2019-06-13T02:36:14.517Z,0.00
2019-06-13T02:37:28.330Z,0.00
2019-06-13T02:38:14.497Z,0.00
2019-06-13T02:39:14.497Z,0.00
2019-06-13T02:40:14.497Z,0.00
2019-06-13T02:41:14.452Z,0.00
2019-06-13T02:42:14.470Z,0.00
2019-06-13T02:43:14.487Z,0.00
2019-06-13T02:44:14.449Z,0.00
2019-06-13T02:45:14.437Z,0.00
2019-06-13T02:46:14.412Z,0.00
2019-06-13T02:47:14.394Z,0.00
2019-06-13T02:48:14.403Z,0.00
2019-06-13T02:49:14.431Z,0.00
2019-06-13T02:50:14.379Z,0.00
2019-06-13T02:51:14.349Z,0.00
2019-06-13T02:52:14.364Z,0.00
2019-06-13T02:53:14.355Z,0.00
2019-06-13T02:54:14.321Z,0.00
2019-06-13T02:55:14.336Z,0.00
2019-06-13T02:56:16.582Z,0.00
2019-06-13T02:57:14.298Z,0.00
2019-06-13T02:58:14.301Z,0.00
2019-06-13T02:59:14.270Z,0.00
2019-06-13T03:00:14.281Z,0.00
2019-06-13T03:01:14.251Z,0.00
2019-06-13T03:02:14.383Z,0.00
2019-06-13T03:03:14.237Z,0.00
2019-06-13T03:04:14.276Z,0.00
2019-06-13T03:05:14.235Z,0.00
2019-06-13T03:06:14.209Z,0.00
2019-06-13T03:07:14.215Z,0.00
2019-06-13T03:08:14.201Z,0.00
2019-06-13T03:09:14.185Z,0.00
2019-06-13T03:10:14.183Z,0.00
2019-06-13T03:11:14.171Z,0.00
2019-06-13T03:12:14.305Z,0.00
2019-06-13T03:13:14.131Z,0.00
2019-06-13T03:14:14.104Z,0.00
2019-06-13T03:15:14.120Z,0.00
2019-06-13T03:16:14.108Z,0.00
2019-06-13T03:17:14.246Z,0.00
2019-06-13T03:18:14.076Z,0.00
2019-06-13T03:19:14.065Z,0.00
2019-06-13T03:20:14.071Z,0.00
2019-06-13T03:21:14.057Z,0.00
2019-06-13T03:22:14.027Z,0.00
2019-06-13T03:23:14.041Z,0.00
2019-06-13T03:24:14.010Z,0.00
2019-06-13T03:25:14.008Z,0.00
2019-06-13T03:26:13.996Z,0.00
2019-06-13T03:27:13.986Z,0.00
2019-06-13T03:28:14.066Z,0.00
2019-06-13T03:29:14.010Z,0.00
2019-06-13T03:30:21.576Z,0.00
2019-06-13T03:31:13.934Z,0.00
2019-06-13T03:32:13.929Z,0.00
2019-06-13T03:33:13.923Z,0.00
2019-06-13T03:34:13.897Z,0.00
2019-06-13T03:35:13.906Z,0.00
2019-06-13T03:36:13.924Z,0.00
2019-06-13T03:37:13.878Z,0.00
2019-06-13T03:38:13.847Z,0.00
2019-06-13T03:39:13.862Z,0.00
2019-06-13T03:40:22.796Z,0.00
2019-06-13T03:41:13.831Z,0.00
2019-06-13T03:42:13.833Z,0.00
2019-06-13T03:43:13.791Z,0.00
2019-06-13T03:44:13.776Z,0.00
2019-06-13T03:45:13.770Z,0.00
2019-06-13T03:46:13.758Z,0.00
2019-06-13T03:47:13.804Z,0.00
2019-06-13T03:48:13.748Z,0.00
2019-06-13T03:49:13.743Z,0.00
2019-06-13T03:50:13.725Z,0.00
2019-06-13T03:51:13.817Z,0.00
2019-06-13T03:52:13.706Z,0.00
2019-06-13T03:53:13.726Z,0.00
2019-06-13T03:54:13.674Z,0.00
2019-06-13T03:55:13.717Z,0.00
2019-06-13T03:56:13.672Z,0.00
2019-06-13T03:57:13.666Z,0.00
2019-06-13T03:58:13.648Z,0.00
2019-06-13T03:59:13.623Z,0.00
2019-06-13T04:00:13.617Z,0.00
2019-06-13T04:01:16.331Z,0.00
2019-06-13T04:02:13.596Z,0.00
2019-06-13T04:03:13.595Z,0.00
2019-06-13T04:04:13.568Z,0.00
2019-06-13T04:05:13.557Z,0.00
2019-06-13T04:06:13.552Z,0.00
2019-06-13T04:07:13.555Z,0.00
2019-06-13T04:08:20.116Z,0.00
2019-06-13T04:09:13.518Z,0.00
2019-06-13T04:10:13.503Z,0.00
2019-06-13T04:11:13.520Z,0.00
2019-06-13T04:12:13.497Z,0.00
2019-06-13T04:13:13.472Z,0.00
2019-06-13T04:14:13.460Z,0.00
2019-06-13T04:15:13.451Z,0.00
2019-06-13T04:16:13.444Z,0.00
2019-06-13T04:17:13.436Z,0.00
2019-06-13T04:18:13.419Z,0.00
2019-06-13T04:19:13.419Z,0.00
2019-06-13T04:20:13.404Z,0.00
2019-06-13T04:21:13.394Z,0.00
2019-06-13T04:22:13.388Z,0.00
2019-06-13T04:23:13.369Z,0.00
2019-06-13T04:24:13.373Z,0.00
2019-06-13T04:25:13.344Z,0.00
2019-06-13T04:26:13.334Z,0.00
2019-06-13T04:27:13.317Z,0.00
2019-06-13T04:28:13.317Z,0.00
2019-06-13T04:29:13.310Z,0.00
2019-06-13T04:30:46.101Z,0.00
2019-06-13T04:31:13.283Z,0.00
2019-06-13T04:32:13.278Z,0.00
2019-06-13T04:33:13.267Z,0.00
2019-06-13T04:34:13.245Z,0.00
2019-06-13T04:35:13.245Z,0.00
2019-06-13T04:36:13.220Z,0.00
2019-06-13T04:37:13.225Z,0.00
2019-06-13T04:38:13.208Z,0.00
2019-06-13T04:39:13.186Z,0.00
2019-06-13T04:40:13.189Z,0.00
2019-06-13T04:41:13.218Z,0.00
2019-06-13T04:42:13.149Z,0.00
2019-06-13T04:43:13.161Z,0.00
2019-06-13T04:44:13.149Z,0.00
2019-06-13T04:45:13.123Z,0.00
2019-06-13T04:46:13.128Z,0.00
2019-06-13T04:47:13.118Z,0.00
2019-06-13T04:48:13.111Z,0.00
2019-06-13T04:49:13.102Z,0.00
2019-06-13T04:50:13.057Z,0.00
2019-06-13T04:51:13.072Z,0.00
2019-06-13T04:52:13.039Z,0.00
2019-06-13T04:53:13.029Z,0.00
2019-06-13T04:54:13.040Z,0.00
2019-06-13T04:55:13.039Z,0.00
2019-06-13T04:56:13.011Z,0.00
2019-06-13T04:57:12.998Z,0.00
2019-06-13T04:58:12.987Z,0.00
2019-06-13T04:59:12.977Z,0.00
2019-06-13T05:00:14.736Z,0.00
2019-06-13T05:01:12.985Z,0.00
2019-06-13T05:02:12.956Z,0.00
2019-06-13T05:03:12.945Z,0.00
2019-06-13T05:04:12.915Z,0.00
2019-06-13T05:05:12.937Z,0.00
2019-06-13T05:06:12.897Z,0.00
2019-06-13T05:07:12.937Z,0.00
2019-06-13T05:08:12.894Z,0.00
2019-06-13T05:09:12.853Z,0.00
2019-06-13T05:10:13.720Z,0.00
2019-06-13T05:11:12.855Z,0.00
2019-06-13T05:12:12.826Z,0.00
2019-06-13T05:13:12.815Z,0.00
2019-06-13T05:14:12.806Z,0.00
2019-06-13T05:15:12.792Z,0.00
2019-06-13T05:16:12.813Z,0.00
2019-06-13T05:17:12.826Z,0.00
2019-06-13T05:18:12.751Z,0.00
2019-06-13T05:19:12.755Z,0.00
2019-06-13T05:20:12.748Z,0.00
2019-06-13T05:21:12.748Z,0.00
2019-06-13T05:22:12.716Z,0.00
2019-06-13T05:23:12.697Z,0.00
2019-06-13T05:24:12.713Z,0.00
2019-06-13T05:25:12.695Z,0.00
2019-06-13T05:26:12.672Z,0.00
2019-06-13T05:27:12.662Z,0.00
2019-06-13T05:28:12.669Z,0.00
2019-06-13T05:29:12.665Z,0.00
2019-06-13T05:30:15.004Z,0.00
2019-06-13T05:31:12.625Z,0.00
2019-06-13T05:32:12.627Z,0.00
2019-06-13T05:33:14.090Z,0.00
2019-06-13T05:34:12.597Z,0.00
2019-06-13T05:35:12.579Z,0.00
2019-06-13T05:36:12.575Z,0.00
2019-06-13T05:37:12.571Z,0.00
2019-06-13T05:38:12.527Z,0.00
2019-06-13T05:39:16.387Z,0.00
2019-06-13T05:40:12.537Z,0.00
2019-06-13T05:41:12.521Z,0.00
2019-06-13T05:42:12.486Z,0.00
2019-06-13T05:43:12.511Z,0.00
2019-06-13T05:44:12.464Z,0.00
2019-06-13T05:45:12.467Z,0.00
2019-06-13T05:46:12.466Z,0.00
2019-06-13T05:47:12.438Z,0.00
2019-06-13T05:48:12.439Z,0.00
2019-06-13T05:49:12.419Z,0.00
2019-06-13T05:50:12.418Z,0.00
2019-06-13T05:51:12.401Z,0.00
2019-06-13T05:52:12.392Z,0.00
2019-06-13T05:53:12.393Z,0.00
2019-06-13T05:54:12.378Z,0.00
2019-06-13T05:55:12.342Z,0.00
2019-06-13T05:56:12.332Z,0.00
2019-06-13T05:57:12.320Z,0.00
2019-06-13T05:58:12.326Z,0.00
2019-06-13T05:59:12.327Z,0.00
2019-06-13T06:00:12.302Z,0.00
2019-06-13T06:01:12.291Z,0.00
2019-06-13T06:02:12.283Z,0.00
2019-06-13T06:03:12.276Z,0.00
2019-06-13T06:04:12.269Z,0.00
2019-06-13T06:05:12.254Z,0.00
2019-06-13T06:06:12.240Z,0.00
2019-06-13T06:07:12.207Z,0.00
2019-06-13T06:08:12.231Z,0.00
2019-06-13T06:09:30.753Z,0.00
2019-06-13T06:10:12.195Z,0.00
2019-06-13T06:11:13.391Z,0.00
2019-06-13T06:12:12.173Z,0.00
2019-06-13T06:13:12.169Z,0.00
2019-06-13T06:14:12.123Z,0.00
2019-06-13T06:15:12.140Z,0.00
2019-06-13T06:16:12.111Z,0.00
2019-06-13T06:17:12.112Z,0.00
2019-06-13T06:18:12.107Z,0.00
2019-06-13T06:19:12.081Z,0.00
2019-06-13T06:20:12.095Z,0.00
2019-06-13T06:21:12.062Z,0.00
2019-06-13T06:22:12.050Z,0.00
2019-06-13T06:23:17.132Z,0.00
2019-06-13T06:24:15.046Z,0.00
2019-06-13T06:25:12.924Z,0.00
2019-06-13T06:26:11.999Z,0.00
2019-06-13T06:27:11.998Z,0.00
2019-06-13T06:28:11.986Z,0.00
2019-06-13T06:29:11.987Z,0.00
2019-06-13T06:30:13.658Z,0.00
2019-06-13T06:31:11.958Z,0.00
2019-06-13T06:32:11.944Z,0.00
2019-06-13T06:33:11.925Z,0.00
2019-06-13T06:34:11.924Z,0.00
2019-06-13T06:35:11.914Z,0.00
2019-06-13T06:36:11.882Z,0.00
2019-06-13T06:37:11.870Z,0.00
2019-06-13T06:38:11.895Z,0.00
2019-06-13T06:39:11.850Z,0.00
2019-06-13T06:40:11.850Z,0.00
2019-06-13T06:41:11.837Z,0.00
2019-06-13T06:42:11.843Z,0.00
2019-06-13T06:43:11.810Z,0.00
2019-06-13T06:44:11.799Z,0.00
2019-06-13T06:45:11.796Z,0.00
2019-06-13T06:46:11.780Z,0.00
2019-06-13T06:47:11.778Z,0.00
2019-06-13T06:48:11.776Z,0.00
2019-06-13T06:49:11.729Z,0.00
2019-06-13T06:50:11.739Z,0.00
2019-06-13T06:51:11.728Z,0.00
2019-06-13T06:52:11.713Z,0.00
2019-06-13T06:53:11.714Z,0.00
2019-06-13T06:54:11.715Z,0.00
2019-06-13T06:55:11.677Z,0.00
2019-06-13T06:56:11.688Z,0.00
2019-06-13T06:57:11.643Z,0.00
2019-06-13T06:58:11.632Z,0.00
2019-06-13T06:59:11.633Z,0.00
2019-06-13T07:00:12.051Z,0.00
2019-06-13T07:01:11.619Z,0.00
2019-06-13T07:02:11.608Z,0.00
2019-06-13T07:03:11.606Z,0.00
2019-06-13T07:04:14.382Z,0.00
2019-06-13T07:05:11.558Z,0.00
2019-06-13T07:06:11.567Z,0.00
2019-06-13T07:07:11.596Z,0.00
2019-06-13T07:08:11.540Z,0.00
2019-06-13T07:09:11.517Z,0.00
2019-06-13T07:10:17.481Z,0.00
2019-06-13T07:11:11.497Z,0.00
2019-06-13T07:12:11.488Z,0.00
2019-06-13T07:13:11.485Z,0.00
2019-06-13T07:14:20.626Z,0.00
2019-06-13T07:15:11.436Z,0.00
2019-06-13T07:16:11.447Z,0.00
2019-06-13T07:17:11.422Z,0.00
2019-06-13T07:18:11.404Z,0.00
2019-06-13T07:19:11.406Z,0.00
2019-06-13T07:20:11.398Z,0.00
2019-06-13T07:21:11.407Z,0.00
2019-06-13T07:22:11.388Z,0.00
2019-06-13T07:23:11.374Z,0.00
2019-06-13T07:24:11.358Z,0.00
2019-06-13T07:25:11.351Z,0.00
2019-06-13T07:26:11.336Z,0.00
2019-06-13T07:27:11.581Z,0.00
2019-06-13T07:28:11.286Z,0.00
2019-06-13T07:29:11.301Z,0.00
2019-06-13T07:30:14.956Z,0.00
2019-06-13T07:31:11.279Z,0.00
2019-06-13T07:32:11.278Z,0.00
2019-06-13T07:33:11.246Z,0.00
2019-06-13T07:34:11.506Z,0.00
2019-06-13T07:35:11.223Z,0.00
2019-06-13T07:36:11.211Z,0.00
2019-06-13T07:37:11.227Z,0.00
2019-06-13T07:38:11.195Z,0.00
2019-06-13T07:39:11.183Z,0.00
2019-06-13T07:40:27.767Z,0.00
2019-06-13T07:41:11.164Z,0.00
2019-06-13T07:42:11.154Z,0.00
2019-06-13T07:43:11.142Z,0.00
2019-06-13T07:44:14.339Z,0.00
2019-06-13T07:45:11.126Z,0.00
2019-06-13T07:46:11.084Z,0.00
2019-06-13T07:47:11.108Z,0.00
2019-06-13T07:48:12.713Z,0.00
2019-06-13T07:49:11.060Z,0.00
2019-06-13T07:50:11.056Z,0.00
2019-06-13T07:51:11.046Z,0.00
2019-06-13T07:52:11.032Z,0.00
2019-06-13T07:53:11.048Z,0.00
2019-06-13T07:54:11.005Z,0.00
2019-06-13T07:55:12.035Z,0.00
2019-06-13T07:56:10.996Z,0.00
2019-06-13T07:57:10.964Z,0.00
2019-06-13T07:58:10.968Z,0.00
2019-06-13T07:59:11.077Z,0.00
2019-06-13T08:00:10.944Z,0.00
2019-06-13T08:01:11.706Z,0.00
2019-06-13T08:02:10.954Z,0.00
2019-06-13T08:03:10.932Z,0.00
2019-06-13T08:04:11.258Z,0.00
2019-06-13T08:05:10.881Z,0.00
2019-06-13T08:06:10.867Z,0.00
2019-06-13T08:07:10.852Z,0.00
2019-06-13T08:08:10.875Z,0.00
2019-06-13T08:09:10.820Z,0.00
2019-06-13T08:10:12.401Z,0.00
2019-06-13T08:11:10.810Z,0.00
2019-06-13T08:12:10.811Z,0.00
2019-06-13T08:13:10.872Z,0.00
2019-06-13T08:14:10.781Z,0.00
2019-06-13T08:15:10.808Z,0.00
2019-06-13T08:16:26.032Z,0.00
2019-06-13T08:17:11.048Z,0.00
2019-06-13T08:18:10.711Z,0.00
2019-06-13T08:19:10.721Z,0.00
2019-06-13T08:20:10.715Z,0.00
2019-06-13T08:21:10.699Z,0.00
2019-06-13T08:22:10.844Z,0.00
2019-06-13T08:23:18.074Z,0.00
2019-06-13T08:24:10.653Z,0.00
2019-06-13T08:25:10.641Z,0.00
2019-06-13T08:26:13.331Z,0.00
2019-06-13T08:27:10.619Z,0.00
2019-06-13T08:28:10.632Z,0.00
2019-06-13T08:29:10.600Z,0.00
2019-06-13T08:30:10.648Z,0.00
2019-06-13T08:31:10.584Z,0.00
2019-06-13T08:32:10.557Z,0.00
2019-06-13T08:33:10.571Z,0.00
2019-06-13T08:34:10.538Z,0.00
2019-06-13T08:35:10.541Z,0.00
2019-06-13T08:36:10.503Z,0.00
2019-06-13T08:37:12.316Z,0.00
2019-06-13T08:38:10.486Z,0.00
2019-06-13T08:39:10.474Z,0.00
2019-06-13T08:40:10.490Z,0.00
2019-06-13T08:41:19.146Z,0.00
2019-06-13T08:42:10.435Z,0.00
2019-06-13T08:43:15.285Z,0.00
2019-06-13T08:44:11.172Z,0.00
2019-06-13T08:45:10.409Z,0.00
2019-06-13T08:46:10.724Z,0.00
2019-06-13T08:47:10.833Z,0.00
2019-06-13T08:48:11.031Z,0.00
2019-06-13T08:49:16.204Z,0.00
2019-06-13T08:50:10.347Z,0.00
2019-06-13T08:51:10.555Z,0.00
2019-06-13T08:52:10.341Z,0.00
2019-06-13T08:53:10.614Z,0.00
2019-06-13T08:54:10.401Z,0.00
2019-06-13T08:55:10.780Z,0.00
2019-06-13T08:56:10.316Z,0.00
2019-06-13T08:57:10.378Z,0.00
2019-06-13T08:58:10.348Z,0.00
2019-06-13T08:59:10.528Z,0.00
2019-06-13T09:00:10.249Z,0.00
2019-06-13T09:01:10.815Z,0.00
2019-06-13T09:02:11.076Z,0.00
2019-06-13T09:03:10.397Z,0.00
2019-06-13T09:04:10.923Z,0.00
2019-06-13T09:05:11.216Z,0.00
2019-06-13T09:06:13.948Z,0.00
2019-06-13T09:07:10.165Z,0.00
2019-06-13T09:08:15.881Z,0.00
2019-06-13T09:09:10.184Z,0.00
2019-06-13T09:10:10.640Z,0.00
2019-06-13T09:11:10.107Z,0.00
2019-06-13T09:12:10.498Z,0.00
2019-06-13T09:13:10.080Z,0.00
2019-06-13T09:14:11.363Z,0.00
2019-06-13T09:15:10.061Z,0.00
2019-06-13T09:16:10.391Z,0.00
2019-06-13T09:17:12.584Z,0.00
2019-06-13T09:18:10.012Z,0.00
2019-06-13T09:19:10.406Z,0.00
2019-06-13T09:20:10.425Z,0.00
2019-06-13T09:21:10.998Z,0.00
2019-06-13T09:22:10.355Z,0.00
2019-06-13T09:23:11.225Z,0.00
2019-06-13T09:24:10.270Z,0.00
2019-06-13T09:25:12.090Z,0.00
2019-06-13T09:26:10.493Z,0.00
2019-06-13T09:27:09.947Z,0.00
2019-06-13T09:28:09.978Z,0.00
2019-06-13T09:29:10.398Z,0.00
2019-06-13T09:30:09.929Z,0.00
2019-06-13T09:31:10.775Z,0.00
2019-06-13T09:32:10.383Z,0.00
2019-06-13T09:33:18.891Z,0.00
2019-06-13T09:34:14.179Z,0.00
2019-06-13T09:35:10.194Z,0.00
2019-06-13T09:36:11.148Z,0.00
2019-06-13T09:37:10.012Z,0.00
2019-06-13T09:38:10.367Z,0.00
2019-06-13T09:39:20.130Z,0.00
2019-06-13T09:40:10.671Z,0.00
2019-06-13T09:41:11.350Z,0.00
2019-06-13T09:42:18.573Z,0.00
2019-06-13T09:43:10.490Z,0.00
2019-06-13T09:44:11.294Z,0.00
2019-06-13T09:45:11.341Z,0.00
2019-06-13T09:46:10.291Z,0.00
2019-06-13T09:47:10.854Z,0.00
2019-06-13T09:48:11.581Z,0.00
2019-06-13T09:49:10.733Z,0.00
2019-06-13T09:50:11.274Z,0.00
2019-06-13T09:51:10.006Z,0.00
2019-06-13T09:52:10.176Z,0.00
2019-06-13T09:53:10.828Z,0.00
2019-06-13T09:54:10.707Z,0.00
2019-06-13T09:55:14.861Z,0.00
2019-06-13T09:56:10.597Z,0.00
2019-06-13T09:57:11.153Z,0.00
2019-06-13T09:58:09.611Z,0.00
2019-06-13T09:59:10.584Z,0.00
2019-06-13T10:00:17.407Z,0.00
2019-06-13T10:01:09.523Z,0.00
2019-06-13T10:02:09.528Z,0.00
2019-06-13T10:03:09.945Z,0.00
2019-06-13T10:04:09.487Z,0.00
2019-06-13T10:05:11.107Z,0.00
2019-06-13T10:06:18.676Z,0.00
2019-06-13T10:07:09.787Z,0.00
2019-06-13T10:08:09.746Z,0.00
2019-06-13T10:09:10.805Z,0.00
2019-06-13T10:10:10.566Z,0.00
2019-06-13T10:11:09.419Z,0.00
2019-06-13T10:12:30.855Z,0.00
2019-06-13T10:13:10.199Z,0.00
2019-06-13T10:14:10.328Z,0.00
2019-06-13T10:15:10.879Z,0.00
2019-06-13T10:16:10.879Z,0.00
2019-06-13T10:17:11.268Z,0.00
2019-06-13T10:18:11.388Z,0.00
2019-06-13T10:19:10.264Z,0.00
2019-06-13T10:20:22.568Z,5.63
2019-06-13T10:21:09.686Z,5.63
2019-06-13T10:22:16.917Z,5.63
2019-06-13T10:23:09.950Z,5.63
2019-06-13T10:24:29.391Z,5.63
2019-06-13T10:25:12.964Z,5.63
2019-06-13T10:26:19.415Z,5.63
2019-06-13T10:27:09.231Z,5.63
2019-06-13T10:28:10.659Z,5.63
2019-06-13T10:29:09.209Z,5.63
2019-06-13T10:30:11.237Z,5.63
2019-06-13T10:31:09.191Z,5.63
2019-06-13T10:32:09.164Z,5.63
2019-06-13T10:33:09.654Z,5.63
2019-06-13T10:34:09.134Z,5.63
2019-06-13T10:35:09.146Z,5.63
2019-06-13T10:36:09.767Z,5.63
2019-06-13T10:37:09.110Z,5.63
2019-06-13T10:38:11.423Z,5.63
2019-06-13T10:39:10.324Z,5.63
2019-06-13T10:40:10.665Z,5.63
2019-06-13T10:41:09.930Z,5.63
2019-06-13T10:42:09.950Z,5.63
2019-06-13T10:43:19.704Z,5.63
2019-06-13T10:44:09.699Z,5.63
2019-06-13T10:45:10.107Z,5.63
2019-06-13T10:46:09.751Z,5.63
2019-06-13T10:47:09.144Z,5.63
2019-06-13T10:48:09.363Z,5.63
2019-06-13T10:49:10.222Z,5.63
2019-06-13T10:50:09.431Z,5.63
2019-06-13T10:51:10.615Z,5.63
2019-06-13T10:52:09.978Z,5.63
2019-06-13T10:53:12.930Z,5.63
2019-06-13T10:54:08.906Z,5.63
2019-06-13T10:55:09.584Z,5.63
2019-06-13T10:56:08.890Z,5.63
2019-06-13T10:57:13.805Z,5.63
2019-06-13T10:58:10.071Z,5.63
2019-06-13T10:59:09.846Z,5.63
2019-06-13T11:00:09.691Z,5.63
2019-06-13T11:01:11.079Z,5.63
2019-06-13T11:02:09.625Z,5.63
2019-06-13T11:03:08.802Z,5.63
2019-06-13T11:04:10.772Z,11.25
2019-06-13T11:05:10.577Z,11.25
2019-06-13T11:06:11.195Z,11.25
2019-06-13T11:07:09.573Z,11.25
2019-06-13T11:08:15.730Z,11.25
2019-06-13T11:09:09.561Z,11.25
2019-06-13T11:10:11.821Z,11.25
2019-06-13T11:11:09.315Z,11.25
2019-06-13T11:12:08.722Z,11.25
2019-06-13T11:13:17.443Z,11.25
2019-06-13T11:14:10.175Z,11.25
2019-06-13T11:15:10.295Z,11.25
2019-06-13T11:16:10.308Z,11.25
2019-06-13T11:17:30.888Z,11.25
2019-06-13T11:18:08.687Z,11.25
2019-06-13T11:19:09.997Z,11.25
2019-06-13T11:20:09.460Z,11.25
2019-06-13T11:21:09.509Z,11.25
2019-06-13T11:22:10.555Z,11.25
2019-06-13T11:23:09.821Z,11.25
2019-06-13T11:24:10.075Z,11.25
2019-06-13T11:25:09.778Z,11.25
2019-06-13T11:26:08.571Z,11.25
2019-06-13T11:27:08.536Z,11.25
2019-06-13T11:28:09.816Z,11.25
2019-06-13T11:29:09.830Z,11.25
2019-06-13T11:30:11.633Z,11.25
2019-06-13T11:31:09.616Z,16.88
2019-06-13T11:32:08.496Z,16.88
2019-06-13T11:33:09.181Z,22.50
2019-06-13T11:34:09.339Z,22.50
2019-06-13T11:35:10.293Z,22.50
2019-06-13T11:36:09.151Z,28.13
2019-06-13T11:37:10.557Z,33.75
2019-06-13T11:38:11.073Z,50.63
2019-06-13T11:39:09.813Z,101.25
2019-06-13T11:40:25.041Z,163.13
2019-06-13T11:41:09.473Z,163.13
2019-06-13T11:42:14.330Z,129.38
2019-06-13T11:43:09.361Z,118.13
2019-06-13T11:44:11.372Z,112.50
2019-06-13T11:45:10.786Z,123.75
2019-06-13T11:46:09.913Z,101.25
2019-06-13T11:47:10.140Z,61.88
2019-06-13T11:48:10.517Z,50.63
2019-06-13T11:49:13.443Z,50.63
2019-06-13T11:50:09.675Z,50.63
2019-06-13T11:51:08.307Z,50.63
2019-06-13T11:52:08.324Z,50.63
2019-06-13T11:53:10.993Z,50.63
2019-06-13T11:54:09.826Z,50.63
2019-06-13T11:55:12.195Z,50.63
2019-06-13T11:56:10.052Z,50.63
2019-06-13T11:57:10.441Z,50.63
2019-06-13T11:58:08.274Z,50.63
2019-06-13T11:59:10.186Z,50.63
2019-06-13T12:00:19.923Z,50.63
2019-06-13T12:01:09.446Z,56.25
2019-06-13T12:02:10.182Z,50.63
2019-06-13T12:03:10.436Z,50.63
2019-06-13T12:04:10.281Z,50.63
2019-06-13T12:05:10.196Z,50.63
2019-06-13T12:06:10.180Z,50.63
2019-06-13T12:07:10.043Z,50.63
2019-06-13T12:08:15.288Z,56.25
2019-06-13T12:09:10.219Z,56.25
2019-06-13T12:10:09.725Z,56.25
2019-06-13T12:11:10.376Z,56.25
2019-06-13T12:12:09.989Z,61.88
2019-06-13T12:13:08.112Z,61.88
2019-06-13T12:14:14.450Z,61.88
2019-06-13T12:15:10.719Z,61.88
2019-06-13T12:16:09.474Z,61.88
2019-06-13T12:17:10.741Z,61.88
2019-06-13T12:18:09.507Z,61.88
2019-06-13T12:19:09.922Z,61.88
2019-06-13T12:20:10.151Z,61.88
2019-06-13T12:21:10.419Z,61.88
2019-06-13T12:22:10.248Z,61.88
2019-06-13T12:23:10.260Z,67.50
2019-06-13T12:24:09.832Z,61.88
2019-06-13T12:25:08.015Z,61.88
2019-06-13T12:26:08.001Z,61.88
2019-06-13T12:27:10.603Z,61.88
2019-06-13T12:28:07.971Z,61.88
2019-06-13T12:29:11.213Z,61.88
2019-06-13T12:30:09.006Z,61.88
2019-06-13T12:31:09.565Z,61.88
2019-06-13T12:32:07.977Z,61.88
2019-06-13T12:33:07.992Z,61.88
2019-06-13T12:34:10.333Z,61.88
2019-06-13T12:35:07.914Z,61.88
2019-06-13T12:36:10.784Z,61.88
2019-06-13T12:37:09.293Z,61.88
2019-06-13T12:38:09.312Z,67.50
2019-06-13T12:39:10.296Z,61.88
2019-06-13T12:40:09.418Z,61.88
2019-06-13T12:41:09.595Z,61.88
2019-06-13T12:42:09.756Z,61.88
2019-06-13T12:43:09.307Z,61.88
2019-06-13T12:44:21.982Z,61.88
2019-06-13T12:45:10.863Z,61.88
2019-06-13T12:46:09.709Z,61.88
2019-06-13T12:47:09.518Z,61.88
2019-06-13T12:48:09.273Z,61.88
2019-06-13T12:49:10.143Z,61.88
2019-06-13T12:50:10.555Z,61.88
2019-06-13T12:51:07.782Z,61.88
2019-06-13T12:52:10.055Z,61.88
2019-06-13T12:53:09.593Z,61.88
2019-06-13T12:54:07.774Z,61.88
2019-06-13T12:55:07.778Z,61.88
2019-06-13T12:56:10.093Z,56.25
2019-06-13T12:57:09.138Z,56.25
2019-06-13T12:58:09.884Z,56.25
2019-06-13T12:59:09.638Z,50.63
2019-06-13T13:00:10.154Z,50.63
2019-06-13T13:01:09.405Z,50.63
2019-06-13T13:02:10.262Z,50.63
2019-06-13T13:03:10.421Z,50.63
2019-06-13T13:04:14.826Z,50.63
2019-06-13T13:05:09.903Z,50.63
2019-06-13T13:06:07.676Z,50.63
2019-06-13T13:07:07.713Z,50.63
2019-06-13T13:08:10.143Z,50.63
2019-06-13T13:09:08.034Z,45.00
2019-06-13T13:10:09.908Z,50.63
2019-06-13T13:11:09.914Z,50.63
2019-06-13T13:12:10.031Z,50.63
2019-06-13T13:13:10.358Z,45.00